Time;durP1;ratioP1;P1;durP2;ratioP2;P2;SDS_P1;SDS_P2;PMS_P1;PMS_P2;Temp;Humidity;BMP_temperature;BMP_pressure;BME280_temperature;BME280_humidity;BME280_pressure;Samples;Min_cycle;Max_cycle;Signal;HPM_P1;HPM_P2
2023/09/30 00:07:19;;;;;;;6.97;1.90;;;18.90;99.90;;;;;;20831831;28;20239;-67
2023/09/30 00:17:21;;;;;;;4.63;1.73;;;18.80;99.90;;;;;;20831926;28;20235;-66
2023/09/30 00:27:23;;;;;;;4.57;1.70;;;18.70;99.90;;;;;;20830572;28;20314;-63
2023/09/30 00:37:24;;;;;;;6.50;1.80;;;18.40;99.90;;;;;;20829791;28;20309;-63
2023/09/30 00:47:26;;;;;;;5.03;1.57;;;18.20;99.90;;;;;;20829202;28;20239;-64
2023/09/30 00:57:30;;;;;;;5.13;1.67;;;18.20;99.90;;;;;;20829038;28;20544;-63
2023/09/30 01:07:33;;;;;;;4.43;1.77;;;18.10;99.90;;;;;;20828652;28;20691;-64
2023/09/30 01:17:36;;;;;;;3.67;1.73;;;18.20;99.90;;;;;;20811227;28;20214;-63
2023/09/30 01:27:38;;;;;;;3.93;1.67;;;18.30;99.10;;;;;;20827878;28;20298;-64
2023/09/30 01:37:40;;;;;;;4.93;2.00;;;18.10;98.00;;;;;;20827583;28;20273;-64
2023/09/30 01:47:42;;;;;;;5.90;2.50;;;18.10;97.00;;;;;;20827694;28;20232;-64
2023/09/30 01:57:43;;;;;;;5.13;2.30;;;18.10;96.10;;;;;;20827099;28;20209;-64
2023/09/30 02:07:45;;;;;;;5.50;2.00;;;18.20;95.60;;;;;;20841009;28;20232;-63
2023/09/30 02:17:48;;;;;;;4.90;2.20;;;18.10;95.00;;;;;;20840682;28;20234;-64
2023/09/30 02:27:51;;;;;;;4.13;1.97;;;18.20;94.80;;;;;;20839302;28;20254;-64
2023/09/30 02:37:53;;;;;;;3.63;1.70;;;18.20;94.60;;;;;;20838592;28;20335;-63
2023/09/30 02:47:55;;;;;;;7.00;2.33;;;18.10;94.40;;;;;;20838292;28;20770;-64
2023/09/30 02:57:58;;;;;;;4.80;2.50;;;18.10;94.40;;;;;;20837221;28;20273;-66
2023/09/30 03:08:01;;;;;;;9.70;2.27;;;18.10;94.60;;;;;;20836394;28;20242;-64
2023/09/30 03:18:03;;;;;;;6.33;2.20;;;18.10;94.60;;;;;;20835740;28;20290;-69
2023/09/30 03:28:06;;;;;;;8.33;3.03;;;18.00;94.80;;;;;;20834582;28;20235;-67
2023/09/30 03:38:09;;;;;;;7.03;3.00;;;18.00;95.10;;;;;;20833965;28;20307;-65
2023/09/30 03:48:11;;;;;;;8.60;2.90;;;17.90;95.40;;;;;;20833649;28;20234;-64
2023/09/30 03:58:13;;;;;;;6.13;2.13;;;17.80;95.50;;;;;;20833006;28;20638;-63
2023/09/30 04:08:15;;;;;;;7.03;2.87;;;17.80;95.70;;;;;;20831748;28;20241;-64
2023/09/30 04:18:16;;;;;;;4.87;1.93;;;17.80;95.70;;;;;;20831465;28;20306;-63
2023/09/30 04:28:20;;;;;;;6.27;3.10;;;17.80;95.90;;;;;;20829660;28;20711;-64
2023/09/30 04:38:22;;;;;;;5.17;2.20;;;17.80;95.80;;;;;;20829857;28;20229;-63
2023/09/30 04:48:23;;;;;;;5.77;2.17;;;17.60;95.70;;;;;;20829769;28;20591;-63
2023/09/30 04:58:25;;;;;;;4.40;2.30;;;17.60;95.90;;;;;;20829180;28;20211;-63
2023/09/30 05:08:28;;;;;;;6.67;4.07;;;17.60;96.10;;;;;;20828678;28;20733;-63
2023/09/30 05:18:30;;;;;;;6.40;2.80;;;17.50;96.10;;;;;;20828665;28;20208;-64
2023/09/30 05:28:32;;;;;;;6.37;2.70;;;17.50;96.30;;;;;;20827897;28;20736;-64
2023/09/30 05:38:34;;;;;;;7.93;2.80;;;17.40;96.30;;;;;;20838404;28;20588;-64
2023/09/30 05:48:37;;;;;;;6.40;2.73;;;17.40;96.20;;;;;;20842722;28;20249;-64
2023/09/30 05:58:38;;;;;;;8.37;2.67;;;17.40;96.00;;;;;;20824295;28;20207;-63
2023/09/30 06:08:40;;;;;;;9.80;2.83;;;17.20;95.90;;;;;;20840914;28;20248;-63
2023/09/30 06:18:42;;;;;;;8.13;2.60;;;17.20;96.10;;;;;;20840562;28;20294;-63
2023/09/30 06:28:45;;;;;;;4.23;2.13;;;17.30;96.10;;;;;;20839417;28;20239;-63
2023/09/30 06:38:50;;;;;;;6.43;2.30;;;17.40;95.80;;;;;;20838657;28;20234;-63
2023/09/30 06:48:52;;;;;;;9.07;2.43;;;17.50;95.50;;;;;;20837613;28;20242;-68
2023/09/30 06:58:53;;;;;;;6.73;3.07;;;17.50;95.20;;;;;;20837139;28;20223;-64
2023/09/30 07:08:55;;;;;;;7.73;2.63;;;17.40;95.20;;;;;;20836372;28;20327;-68
2023/09/30 07:18:57;;;;;;;7.60;2.80;;;17.40;95.20;;;;;;20836164;28;20287;-64
2023/09/30 07:28:59;;;;;;;4.97;2.47;;;17.40;95.00;;;;;;20834761;28;20243;-63
2023/09/30 07:39:01;;;;;;;12.50;2.77;;;17.50;94.90;;;;;;20834493;28;20236;-65
2023/09/30 07:49:03;;;;;;;7.13;2.50;;;17.50;94.90;;;;;;20833818;28;20240;-63
2023/09/30 07:59:05;;;;;;;8.37;2.80;;;17.80;94.80;;;;;;20831642;28;20215;-63
2023/09/30 08:09:11;;;;;;;6.13;2.40;;;18.00;94.40;;;;;;20831858;28;20608;-64
2023/09/30 08:19:13;;;;;;;9.60;2.90;;;18.20;94.20;;;;;;20831678;28;20223;-64
2023/09/30 08:29:14;;;;;;;12.30;2.80;;;18.30;93.50;;;;;;20830122;28;20704;-63
2023/09/30 08:39:16;;;;;;;11.23;3.23;;;18.60;93.20;;;;;;20829916;28;20296;-64
2023/09/30 08:49:19;;;;;;;11.27;3.23;;;18.80;92.70;;;;;;20829572;28;20240;-63
2023/09/30 08:59:21;;;;;;;7.47;2.77;;;19.10;92.40;;;;;;20829204;28;20287;-63
2023/09/30 09:09:23;;;;;;;11.77;3.47;;;19.10;91.90;;;;;;20833331;28;20323;-64
2023/09/30 09:19:25;;;;;;;6.80;2.93;;;19.20;91.80;;;;;;20845312;28;20208;-63
2023/09/30 09:29:27;;;;;;;9.37;3.20;;;19.50;91.40;;;;;;20843752;28;20236;-65
2023/09/30 09:39:32;;;;;;;7.80;3.03;;;19.70;90.70;;;;;;20843624;28;20212;-64
2023/09/30 09:49:34;;;;;;;5.13;3.07;;;19.70;89.80;;;;;;20842773;28;20239;-64
2023/09/30 09:59:39;;;;;;;7.10;3.40;;;19.60;89.50;;;;;;20841996;28;20259;-64
2023/09/30 10:09:45;;;;;;;9.20;3.23;;;19.50;89.40;;;;;;20823159;28;20331;-67
2023/09/30 10:20:26;;;;;;;8.77;3.93;;;19.70;88.90;;;;;;20839263;28;20204;-64
2023/09/30 10:30:28;;;;;;;9.33;4.00;;;19.50;88.20;;;;;;20825552;28;20646;-63
2023/09/30 10:40:33;;;;;;;7.80;4.27;;;19.40;88.30;;;;;;20838115;28;20668;-65
2023/09/30 10:51:12;;;;;;;7.97;4.37;;;19.50;87.10;;;;;;20837960;28;20232;-63
2023/09/30 11:01:16;;;;;;;6.97;4.23;;;19.90;85.40;;;;;;20718335;28;20655;-63
2023/09/30 11:11:18;;;;;;;12.67;7.00;;;20.10;84.40;;;;;;20836445;28;20237;-64
2023/09/30 11:21:20;;;;;;;12.97;4.57;;;20.40;83.60;;;;;;20834682;28;20215;-66
2023/09/30 11:31:22;;;;;;;8.30;4.70;;;20.40;81.50;;;;;;20834626;28;20294;-68
2023/09/30 11:41:39;;;;;;;8.50;4.43;;;20.40;79.50;;;;;;20833881;28;20215;-63
2023/09/30 11:51:47;;;;;;;10.13;5.23;;;20.70;77.60;;;;;;20833418;28;20286;-64
2023/09/30 12:01:49;;;;;;;8.43;4.63;;;20.80;74.80;;;;;;20832597;28;20212;-66
2023/09/30 12:12:10;;;;;;;7.13;4.03;;;20.50;72.60;;;;;;20831439;28;20235;-64
2023/09/30 12:22:13;;;;;;;9.93;4.70;;;21.00;71.70;;;;;;20831200;28;20215;-64
2023/09/30 12:32:16;;;;;;;9.57;4.87;;;21.20;70.80;;;;;;20830529;28;20240;-63
2023/09/30 12:42:18;;;;;;;9.93;4.40;;;21.10;71.00;;;;;;20830165;28;20278;-64
2023/09/30 12:52:20;;;;;;;10.90;4.43;;;20.90;71.40;;;;;;20829367;28;20233;-63
2023/09/30 13:02:22;;;;;;;13.10;6.40;;;21.00;71.10;;;;;;20829275;28;20299;-64
2023/09/30 13:12:25;;;;;;;13.90;5.03;;;21.50;69.80;;;;;;20828560;28;20254;-67
2023/09/30 13:22:27;;;;;;;9.13;4.93;;;21.60;66.00;;;;;;20828376;28;20580;-68
2023/09/30 13:32:28;;;;;;;9.57;4.90;;;22.00;65.50;;;;;;20827851;28;20240;-68
2023/09/30 13:42:31;;;;;;;9.20;4.83;;;21.90;64.00;;;;;;20827404;28;20216;-69
2023/09/30 13:52:35;;;;;;;9.20;5.10;;;22.00;61.40;;;;;;20827196;28;20278;-65
2023/09/30 14:02:37;;;;;;;7.93;4.20;;;22.10;59.50;;;;;;20842064;28;20208;-64
2023/09/30 14:12:39;;;;;;;7.30;4.27;;;22.40;58.60;;;;;;20840857;28;20232;-65
2023/09/30 14:22:42;;;;;;;8.13;4.63;;;;;;;;;;20840226;28;20207;-63
2023/09/30 14:32:44;;;;;;;10.27;4.85;;;;;;;;;;20839559;28;20283;-64
2023/09/30 14:42:46;;;;;;;8.10;4.37;;;;;;;;;;20838824;28;20208;-69
2023/09/30 14:52:49;;;;;;;6.03;3.67;;;22.50;58.20;;;;;;20820476;28;20282;-63
2023/09/30 15:02:51;;;;;;;6.77;3.77;;;23.10;53.90;;;;;;20837780;28;20231;-63
2023/09/30 15:12:52;;;;;;;7.23;3.70;;;22.60;53.90;;;;;;20835794;28;20323;-63
2023/09/30 15:22:54;;;;;;;7.43;3.73;;;22.10;54.50;;;;;;20835797;28;20212;-67
2023/09/30 15:32:56;;;;;;;6.80;3.83;;;21.60;54.90;;;;;;20834964;28;20572;-67
2023/09/30 15:42:58;;;;;;;6.70;3.40;;;21.20;56.10;;;;;;20833973;28;20213;-68
2023/09/30 15:53:00;;;;;;;4.90;3.60;;;21.00;57.20;;;;;;20833281;28;20323;-66
2023/09/30 16:03:04;;;;;;;6.73;3.73;;;20.90;57.80;;;;;;20832909;28;20236;-64
2023/09/30 16:13:07;;;;;;;6.87;3.40;;;20.60;58.60;;;;;;20831584;28;20278;-64
2023/09/30 16:23:08;;;;;;;7.07;3.80;;;20.50;59.20;;;;;;20830389;28;20213;-63
2023/09/30 16:33:10;;;;;;;10.93;3.93;;;20.30;59.70;;;;;;20830662;28;20236;-63
2023/09/30 16:43:13;;;;;;;6.13;4.10;;;20.20;59.90;;;;;;20829889;28;20209;-64
2023/09/30 16:53:16;;;;;;;9.13;3.90;;;20.00;60.20;;;;;;20829456;28;20213;-63
2023/09/30 17:03:18;;;;;;;9.23;5.10;;;19.70;61.10;;;;;;20829043;28;20235;-63
2023/09/30 17:13:20;;;;;;;10.47;4.70;;;19.40;62.60;;;;;;20828175;28;20311;-64
2023/09/30 17:23:22;;;;;;;9.13;5.50;;;19.20;63.80;;;;;;20827722;28;20209;-63
2023/09/30 17:33:24;;;;;;;9.93;4.97;;;;;;;;;;20837152;28;20730;-66
2023/09/30 17:43:26;;;;;;;11.57;5.73;;;;;;;;;;20842644;28;20205;-65
2023/09/30 17:53:30;;;;;;;9.80;4.70;;;19.00;64.80;;;;;;20842475;28;20220;-67
2023/09/30 18:03:32;;;;;;;10.23;5.20;;;18.40;68.20;;;;;;20841494;28;20269;-63
2023/09/30 18:13:34;;;;;;;10.93;5.30;;;18.10;69.60;;;;;;20841334;28;20227;-64
2023/09/30 18:23:37;;;;;;;11.47;5.83;;;17.90;70.90;;;;;;20839975;28;20288;-64
2023/09/30 18:33:39;;;;;;;11.17;5.93;;;17.70;72.40;;;;;;20838994;28;20250;-66
2023/09/30 18:43:45;;;;;;;15.53;6.00;;;17.50;73.30;;;;;;20837913;28;20717;-66
2023/09/30 18:53:47;;;;;;;10.23;5.80;;;17.40;74.00;;;;;;20863918;28;20221;-68
2023/09/30 19:03:49;;;;;;;13.47;6.20;;;17.20;75.00;;;;;;20873390;28;20720;-62
2023/09/30 19:13:51;;;;;;;14.20;6.23;;;17.00;75.90;;;;;;20836803;28;20262;-66
2023/09/30 19:23:52;;;;;;;16.73;6.10;;;16.80;76.90;;;;;;20875627;28;20711;-64
2023/09/30 19:33:54;;;;;;;11.50;6.00;;;16.60;78.40;;;;;;20834481;28;20271;-64
2023/09/30 19:43:56;;;;;;;19.80;6.47;;;16.60;79.50;;;;;;20833999;28;20262;-64
2023/09/30 19:53:58;;;;;;;12.00;6.30;;;16.30;80.50;;;;;;20832866;28;20209;-63
2023/09/30 20:04:01;;;;;;;13.77;5.93;;;16.20;81.80;;;;;;20832546;28;20239;-62
2023/09/30 20:14:03;;;;;;;13.10;6.03;;;16.00;83.10;;;;;;20831905;28;20224;-63
2023/09/30 20:24:05;;;;;;;13.07;6.03;;;15.80;84.30;;;;;;20830942;28;20240;-62
2023/09/30 20:34:08;;;;;;;10.13;6.03;;;15.80;85.80;;;;;;20830121;28;20239;-63
2023/09/30 20:44:10;;;;;;;11.70;6.40;;;15.60;86.50;;;;;;20812847;28;20236;-63
2023/09/30 20:54:11;;;;;;;12.43;6.90;;;15.40;87.50;;;;;;20829503;28;20219;-63
2023/09/30 21:04:14;;;;;;;10.67;6.03;;;15.30;88.80;;;;;;20832069;28;20236;-62
2023/09/30 21:14:15;;;;;;;13.33;7.40;;;15.20;89.70;;;;;;20846046;28;20211;-63
2023/09/30 21:24:17;;;;;;;15.23;7.10;;;15.00;90.30;;;;;;20844897;28;20237;-63
2023/09/30 21:34:19;;;;;;;13.50;6.83;;;14.90;91.00;;;;;;20843993;28;20236;-63
2023/09/30 21:44:20;;;;;;;10.37;6.70;;;14.80;91.40;;;;;;20843955;28;20236;-63
2023/09/30 21:54:22;;;;;;;10.87;6.43;;;14.60;92.20;;;;;;20841607;28;20570;-63
2023/09/30 22:04:24;;;;;;;15.13;6.60;;;14.40;92.40;;;;;;20842245;28;20239;-66
2023/09/30 22:14:26;;;;;;;14.37;7.37;;;14.30;92.80;;;;;;20840489;28;20215;-63
2023/09/30 22:24:28;;;;;;;11.23;6.23;;;14.30;93.10;;;;;;20840448;28;20249;-63
2023/09/30 22:34:30;;;;;;;13.13;7.00;;;14.20;93.50;;;;;;20839614;28;20271;-63
2023/09/30 22:44:32;;;;;;;14.27;7.10;;;14.10;93.70;;;;;;20839547;28;20236;-62
2023/09/30 22:54:34;;;;;;;10.90;6.53;;;14.00;93.80;;;;;;20838339;28;20212;-62
2023/09/30 23:04:36;;;;;;;16.23;9.60;;;13.90;94.10;;;;;;20837599;28;20318;-63
2023/09/30 23:14:37;;;;;;;24.13;12.00;;;13.90;94.30;;;;;;20836835;28;20623;-63
2023/09/30 23:24:42;;;;;;;27.23;12.57;;;13.90;94.30;;;;;;20835622;28;20262;-63
2023/09/30 23:34:43;;;;;;;12.30;6.77;;;13.80;94.50;;;;;;20834548;28;20244;-64
2023/09/30 23:44:46;;;;;;;17.40;8.23;;;13.60;94.70;;;;;;20834609;28;20324;-63
2023/09/30 23:54:48;;;;;;;17.87;8.80;;;13.50;95.00;;;;;;20833428;28;20206;-63
